Time;durP1;ratioP1;P1;durP2;ratioP2;P2;SDS_P1;SDS_P2;PMS_P1;PMS_P2;Temp;Humidity;BMP_temperature;BMP_pressure;BME280_temperature;BME280_humidity;BME280_pressure;Samples;Min_cycle;Max_cycle;Signal;HPM_P1;HPM_P2
2022/10/21 00:01:36;;;;;;;29.45;16.90;;;12.30;99.90;;;11.88;100.00;97041.28;5023608;28;20051;-44
2022/10/21 00:04:02;;;;;;;20.90;13.63;;;12.30;99.90;;;11.90;100.00;97028.88;5030020;28;20044;-45
2022/10/21 00:06:28;;;;;;;23.42;14.25;;;12.30;99.90;;;11.87;100.00;97023.69;5030738;28;20021;-46
2022/10/21 00:08:54;;;;;;;28.27;16.95;;;12.30;99.90;;;11.81;100.00;97039.88;5029601;28;20320;-45
2022/10/21 00:11:20;;;;;;;22.52;14.50;;;12.30;99.90;;;11.80;100.00;97032.84;5032745;28;20112;-44
2022/10/21 00:13:45;;;;;;;25.85;13.25;;;12.30;99.90;;;11.57;100.00;96997.81;5024534;28;20025;-45
2022/10/21 00:16:15;;;;;;;25.67;14.00;;;12.20;99.90;;;11.74;100.00;97015.50;5032914;28;20497;-44
2022/10/21 00:18:43;;;;;;;24.17;14.30;;;12.20;99.90;;;11.72;100.00;97016.50;5033270;28;20061;-43
2022/10/21 00:21:14;;;;;;;26.27;16.88;;;12.20;99.90;;;11.72;100.00;97042.91;5031591;28;20051;-44
2022/10/21 00:23:41;;;;;;;31.60;17.00;;;12.20;99.90;;;11.72;100.00;97050.84;5034973;28;20064;-44
2022/10/21 00:26:07;;;;;;;30.38;16.25;;;12.20;99.90;;;11.77;100.00;97046.19;5035227;28;20455;-45
2022/10/21 00:28:33;;;;;;;24.10;14.35;;;12.20;99.90;;;11.75;100.00;97048.06;5036691;28;20087;-44
2022/10/21 00:30:59;;;;;;;20.92;12.55;;;12.20;99.90;;;11.67;100.00;97040.50;5032602;28;20103;-46
2022/10/21 00:33:27;;;;;;;17.65;11.75;;;12.20;99.90;;;11.68;100.00;97058.06;5036817;28;20663;-44
2022/10/21 00:35:56;;;;;;;15.35;11.00;;;12.20;99.90;;;11.70;100.00;97057.97;5029331;28;20120;-43
2022/10/21 00:38:22;;;;;;;30.55;16.88;;;12.20;99.90;;;11.68;100.00;97033.44;5033534;28;20119;-43
2022/10/21 00:40:48;;;;;;;23.40;14.30;;;12.10;99.90;;;11.70;100.00;97027.16;5029773;28;20052;-44
2022/10/21 00:43:15;;;;;;;23.98;13.82;;;12.20;99.90;;;11.71;100.00;97026.22;5033890;28;20064;-44
2022/10/21 00:45:42;;;;;;;26.25;14.73;;;12.20;99.90;;;11.73;100.00;97028.78;5027795;28;20071;-46
2022/10/21 00:48:39;;;;;;;30.00;16.10;;;12.20;99.90;;;11.77;100.00;97039.16;5034498;28;20047;-45
2022/10/21 00:51:12;;;;;;;23.00;13.68;;;12.30;99.90;;;11.80;100.00;97039.00;5039637;28;20029;-44
2022/10/21 00:53:41;;;;;;;31.38;16.52;;;12.30;99.90;;;11.78;100.00;97024.16;5034180;28;20486;-44
2022/10/21 00:56:15;;;;;;;23.38;13.85;;;12.30;99.90;;;11.80;100.00;97017.84;5023396;28;20075;-44
2022/10/21 00:58:41;;;;;;;26.77;14.15;;;12.30;99.90;;;11.84;100.00;97021.19;5022533;28;20065;-44
2022/10/21 01:01:07;;;;;;;20.30;13.48;;;12.30;99.90;;;11.89;100.00;97015.72;5025016;28;20360;-45
2022/10/21 01:03:34;;;;;;;20.40;12.05;;;12.30;99.90;;;11.93;100.00;97033.16;5039525;28;20032;-43
2022/10/21 01:06:06;;;;;;;20.38;13.20;;;12.30;99.90;;;11.94;100.00;97025.16;5026125;28;20068;-43
2022/10/21 01:08:33;;;;;;;18.10;12.23;;;12.40;99.90;;;11.94;100.00;97019.88;5029522;28;20043;-46
2022/10/21 01:11:01;;;;;;;21.75;12.40;;;12.40;99.90;;;11.93;100.00;97015.50;5028614;28;20564;-44
2022/10/21 01:13:57;;;;;;;15.85;11.20;;;12.40;99.90;;;11.97;100.00;97018.84;5038088;28;20495;-45
2022/10/21 01:16:36;;;;;;;21.27;12.52;;;12.40;99.90;;;11.98;100.00;97018.78;5034916;28;20552;-44
2022/10/21 01:19:34;;;;;;;20.60;12.77;;;12.40;99.90;;;11.98;100.00;97010.84;5037563;28;20865;-44
2022/10/21 01:22:47;;;;;;;22.10;13.00;;;12.40;99.90;;;11.91;100.00;96998.88;5001287;28;20040;-44
2022/10/21 01:25:56;;;;;;;20.67;12.57;;;12.40;99.90;;;11.96;100.00;97018.00;5025312;28;20052;-45
2022/10/21 01:28:49;;;;;;;23.15;14.07;;;12.40;99.90;;;11.92;100.00;97010.31;5026447;28;20033;-45
2022/10/21 01:31:26;;;;;;;;;;;12.40;99.90;;;11.90;100.00;97018.31;5025031;28;20422;-43
2022/10/21 01:34:13;;;;;;;14.65;10.35;;;12.40;99.90;;;11.87;100.00;97030.78;5016852;28;20059;-43
2022/10/21 01:36:51;;;;;;;18.85;11.50;;;12.30;99.90;;;11.87;100.00;97029.00;5021782;28;20061;-45
2022/10/21 01:39:54;;;;;;;14.40;11.13;;;12.30;99.90;;;11.85;100.00;97025.56;5020582;28;20698;-45
2022/10/21 01:42:44;;;;;;;16.83;11.57;;;12.30;99.90;;;11.81;100.00;96985.22;5024356;28;20558;-44
2022/10/21 01:45:35;;;;;;;17.98;10.50;;;12.30;99.90;;;12.01;100.00;97001.94;5024479;28;20048;-45
2022/10/21 01:48:15;;;;;;;15.98;11.65;;;12.40;99.90;;;12.06;100.00;96999.94;5018464;28;20033;-45
2022/10/21 01:50:47;;;;;;;17.58;11.52;;;12.50;99.90;;;12.12;100.00;97009.34;5022590;28;20037;-44
2022/10/21 01:53:16;;;;;;;15.23;10.32;;;12.50;99.90;;;12.16;100.00;97002.97;5002216;28;20086;-45
2022/10/21 01:55:44;;;;;;;13.75;9.80;;;12.60;99.90;;;12.19;100.00;97014.22;5019381;28;20074;-44
2022/10/21 01:58:21;;;;;;;18.42;11.48;;;12.60;99.90;;;12.27;100.00;97007.72;5021813;28;20032;-43
2022/10/21 02:00:50;;;;;;;25.25;12.70;;;12.60;99.90;;;12.33;100.00;97010.91;5021861;28;20033;-45
2022/10/21 02:03:24;;;;;;;21.63;13.13;;;12.70;99.90;;;12.35;100.00;96998.47;5004870;28;20107;-44
2022/10/21 02:05:49;;;;;;;24.13;13.30;;;12.80;99.90;;;12.43;100.00;97003.34;5019437;28;20021;-43
2022/10/21 02:09:27;;;;;;;15.40;10.80;;;12.80;99.90;;;12.45;100.00;96993.56;5014239;28;22446;-45
2022/10/21 02:11:58;;;;;;;17.95;11.02;;;12.90;99.90;;;12.50;100.00;96990.69;5007253;28;20219;-44
2022/10/21 02:14:31;;;;;;;16.77;11.73;;;12.90;99.90;;;12.50;100.00;96977.47;5024821;28;20037;-44
2022/10/21 02:16:59;;;;;;;16.75;10.93;;;12.90;99.90;;;12.50;100.00;96978.31;5018882;28;20033;-44
2022/10/21 02:19:26;;;;;;;17.00;11.63;;;12.90;99.90;;;12.50;100.00;96967.72;5023120;28;20750;-43
2022/10/21 02:21:54;;;;;;;23.52;11.75;;;12.90;99.90;;;12.47;100.00;96959.09;5029972;28;20457;-43
2022/10/21 02:24:51;;;;;;;18.67;11.50;;;12.90;99.90;;;12.45;100.00;96953.88;5024394;28;20049;-43
2022/10/21 02:27:18;;;;;;;21.88;12.85;;;12.90;99.90;;;12.43;100.00;96947.81;5017411;28;20029;-44
2022/10/21 02:29:46;;;;;;;23.35;12.55;;;12.90;99.90;;;12.44;100.00;96938.13;5022414;28;20098;-43
2022/10/21 02:32:27;;;;;;;20.40;12.00;;;12.90;99.90;;;12.45;100.00;96938.00;5017883;28;20459;-43
2022/10/21 02:35:32;;;;;;;28.65;14.48;;;12.90;99.90;;;12.45;100.00;96931.88;5015005;28;20071;-44
2022/10/21 02:38:22;;;;;;;21.70;13.65;;;12.90;99.90;;;12.45;100.00;96922.16;5020460;28;20033;-44
2022/10/21 02:40:55;;;;;;;18.40;10.93;;;12.90;99.90;;;12.46;100.00;96908.00;5021222;28;20494;-44
2022/10/21 02:43:24;;;;;;;;;;;12.90;99.90;;;12.46;100.00;96897.44;5024895;28;20048;-43
2022/10/21 02:45:59;;;;;;;14.75;10.20;;;12.90;99.90;;;12.49;100.00;96910.50;5020972;28;19928;-45
2022/10/21 02:48:25;;;;;;;14.38;10.20;;;12.90;99.90;;;12.49;100.00;96914.91;5022921;28;20651;-44
2022/10/21 02:50:51;;;;;;;14.73;10.40;;;12.90;99.90;;;12.57;100.00;96910.94;5020908;28;20068;-47
2022/10/21 02:53:16;;;;;;;15.77;10.23;;;13.00;99.90;;;12.60;100.00;96910.78;5025804;28;20027;-44
2022/10/21 02:55:42;;;;;;;12.50;9.38;;;13.00;99.90;;;12.62;100.00;96888.69;5030376;28;20107;-43
2022/10/21 02:58:08;;;;;;;22.50;14.05;;;13.00;99.90;;;12.65;100.00;96872.63;5027321;28;20068;-44
2022/10/21 03:00:34;;;;;;;22.67;12.48;;;13.00;99.90;;;12.65;100.00;96868.22;5032201;28;20017;-43
2022/10/21 03:03:00;;;;;;;19.67;12.27;;;13.00;99.90;;;12.67;100.00;96853.13;5030255;28;20033;-43
2022/10/21 03:05:25;;;;;;;19.92;11.75;;;13.10;99.90;;;12.69;100.00;96869.75;5028669;28;20113;-44
2022/10/21 03:07:51;;;;;;;17.83;11.35;;;13.10;99.90;;;12.72;100.00;96877.53;5029304;28;20037;-45
2022/10/21 03:10:17;;;;;;;25.30;13.25;;;13.20;99.90;;;12.71;100.00;96862.59;5028623;28;20044;-44
2022/10/21 03:12:42;;;;;;;18.63;13.15;;;13.10;99.90;;;12.71;100.00;96856.44;5025569;28;20037;-46
2022/10/21 03:15:09;;;;;;;16.10;11.88;;;13.20;99.90;;;12.71;100.00;96848.50;5026371;28;20036;-44
2022/10/21 03:17:34;;;;;;;15.38;10.70;;;13.10;99.90;;;12.69;100.00;96850.38;5028459;28;20743;-47
2022/10/21 03:20:00;;;;;;;16.90;11.20;;;13.10;99.90;;;12.70;100.00;96844.16;5033410;28;20045;-48
2022/10/21 03:22:26;;;;;;;14.70;10.32;;;13.10;99.90;;;12.71;100.00;96841.41;5034364;28;20074;-45
2022/10/21 03:24:51;;;;;;;14.77;10.32;;;13.10;99.90;;;12.74;100.00;96845.69;5032641;28;20040;-44
2022/10/21 03:27:17;;;;;;;15.13;10.18;;;13.10;99.90;;;12.75;100.00;96853.53;5038961;28;20055;-44
2022/10/21 03:29:43;;;;;;;16.02;10.88;;;13.20;99.90;;;12.79;100.00;96855.09;5039518;28;20044;-44
2022/10/21 03:32:08;;;;;;;15.52;10.32;;;13.20;99.90;;;12.83;100.00;96853.13;5032561;28;20483;-45
2022/10/21 03:34:34;;;;;;;18.98;11.15;;;13.20;99.90;;;12.88;100.00;96844.94;5029135;28;20029;-43
2022/10/21 03:37:00;;;;;;;14.40;10.57;;;13.30;99.90;;;12.86;100.00;96831.78;5028021;28;20116;-44
2022/10/21 03:39:25;;;;;;;15.52;9.27;;;13.30;99.90;;;12.94;100.00;96845.44;5032422;28;20079;-45
2022/10/21 03:41:51;;;;;;;20.58;11.85;;;13.30;99.90;;;12.95;100.00;96846.31;5031169;28;20021;-44
2022/10/21 03:44:17;;;;;;;15.48;10.15;;;13.40;99.90;;;12.98;100.00;96840.84;5029897;28;20037;-45
2022/10/21 03:46:42;;;;;;;18.45;10.85;;;13.40;99.90;;;12.99;100.00;96837.25;5016874;22;20531;-45
2022/10/21 03:49:09;;;;;;;19.02;10.55;;;13.40;99.90;;;13.03;100.00;96837.91;4993268;28;20343;-44
2022/10/21 03:51:35;;;;;;;19.35;11.25;;;13.40;99.90;;;13.04;100.00;96832.53;4969935;28;20037;-44
2022/10/21 03:54:00;;;;;;;21.30;11.30;;;13.50;99.90;;;13.08;100.00;96835.88;4989366;28;20038;-43
2022/10/21 03:56:26;;;;;;;15.13;10.60;;;13.50;99.90;;;13.10;100.00;96836.63;4990035;28;20036;-44
2022/10/21 03:58:52;;;;;;;18.05;10.40;;;13.50;99.90;;;13.08;100.00;96827.94;4986088;28;20037;-45
2022/10/21 04:01:17;;;;;;;15.05;10.18;;;13.50;99.90;;;13.05;100.00;96828.97;4979444;28;20045;-43
2022/10/21 04:03:43;;;;;;;19.15;10.18;;;13.50;99.90;;;13.04;100.00;96829.06;4988197;28;20091;-43
2022/10/21 04:06:09;;;;;;;20.55;10.13;;;13.50;99.90;;;13.11;100.00;96830.41;4982761;28;20030;-44
2022/10/21 04:08:35;;;;;;;16.95;10.30;;;13.50;99.90;;;13.10;100.00;96826.94;4981322;28;20127;-46
2022/10/21 04:11:00;;;;;;;16.17;10.82;;;13.50;99.90;;;13.11;100.00;96822.47;4987111;28;20116;-45
2022/10/21 04:13:26;;;;;;;18.38;10.18;;;13.50;99.90;;;12.99;100.00;96800.19;4972792;28;20037;-45
2022/10/21 04:15:58;;;;;;;14.30;9.68;;;13.50;99.90;;;13.15;100.00;96821.34;4990149;28;20156;-47
2022/10/21 04:18:24;;;;;;;;;;;13.50;99.90;;;13.17;100.00;96814.19;4984882;28;20042;-47
2022/10/21 04:20:50;;;;;;;17.40;8.80;;;13.60;99.90;;;13.21;100.00;96812.22;4979766;28;19917;-44
2022/10/21 04:23:16;;;;;;;21.45;8.38;;;13.60;99.90;;;13.26;100.00;96818.09;4987092;28;20550;-44
2022/10/21 04:25:46;;;;;;;14.73;7.82;;;13.60;99.90;;;13.30;100.00;96812.56;4990798;28;20057;-47
2022/10/21 04:28:11;;;;;;;14.75;7.15;;;13.70;99.90;;;13.35;100.00;96813.19;4990576;28;20050;-44
2022/10/21 04:30:38;;;;;;;12.77;6.07;;;13.70;99.90;;;13.34;100.00;96789.44;4986633;28;20168;-44
2022/10/21 04:33:03;;;;;;;10.02;5.75;;;13.80;99.90;;;13.41;100.00;96801.38;4989715;28;20026;-44
2022/10/21 04:35:29;;;;;;;14.38;6.57;;;13.80;99.90;;;13.41;100.00;96804.03;4983680;28;20899;-46
2022/10/21 04:37:55;;;;;;;7.93;5.72;;;13.80;99.90;;;13.44;100.00;96802.97;4972138;28;20040;-43
2022/10/21 04:40:21;;;;;;;14.43;5.90;;;13.80;99.90;;;13.45;100.00;96799.41;4988047;28;20132;-43
2022/10/21 04:42:49;;;;;;;14.60;6.32;;;13.80;99.90;;;13.44;100.00;96790.63;4986954;28;20490;-44
2022/10/21 04:45:17;;;;;;;9.65;6.03;;;13.80;99.90;;;13.44;100.00;96793.25;4981017;28;20076;-45
2022/10/21 04:47:43;;;;;;;12.18;6.60;;;13.80;99.90;;;13.39;100.00;96786.50;4983524;28;20030;-46
2022/10/21 04:50:09;;;;;;;12.00;6.05;;;13.80;99.90;;;13.45;100.00;96789.66;4981461;28;20042;-48
2022/10/21 04:52:34;;;;;;;10.93;6.38;;;13.90;99.90;;;13.45;100.00;96786.16;4985162;28;20050;-48
2022/10/21 04:55:00;;;;;;;11.27;5.75;;;13.90;99.90;;;13.51;100.00;96778.72;4978842;28;20974;-49
2022/10/21 04:57:26;;;;;;;14.45;5.18;;;13.90;99.90;;;13.52;100.00;96772.47;4980297;28;20156;-47
2022/10/21 04:59:51;;;;;;;11.68;5.38;;;13.90;99.90;;;13.62;100.00;96785.16;4965061;28;20250;-47
2022/10/21 05:02:17;;;;;;;11.57;5.05;;;14.00;99.90;;;13.68;100.00;96780.34;4984591;28;20136;-47
2022/10/21 05:04:43;;;;;;;12.82;5.10;;;14.10;99.90;;;13.57;100.00;96761.59;4983788;28;20032;-48
2022/10/21 05:07:09;;;;;;;8.70;4.45;;;14.10;99.90;;;13.74;100.00;96784.44;4990092;28;21575;-45
2022/10/21 05:09:34;;;;;;;9.38;4.88;;;14.10;99.90;;;13.80;100.00;96799.13;4983197;28;20033;-48
2022/10/21 05:12:00;;;;;;;11.75;4.85;;;14.20;99.90;;;13.83;100.00;96791.84;4985413;28;20513;-47
2022/10/21 05:14:26;;;;;;;11.07;5.20;;;14.30;99.90;;;13.85;100.00;96782.00;4984027;28;21282;-47
2022/10/21 05:16:52;;;;;;;16.20;4.75;;;14.30;99.90;;;13.93;100.00;96789.50;4988624;28;20034;-46
2022/10/21 05:19:17;;;;;;;11.55;4.25;;;14.30;99.90;;;14.01;100.00;96786.38;4978685;28;20084;-48
2022/10/21 05:21:45;;;;;;;9.48;3.90;;;14.40;99.90;;;14.06;100.00;96789.59;4989811;28;20049;-45
2022/10/21 05:24:11;;;;;;;10.48;4.35;;;14.40;99.90;;;14.11;100.00;96787.53;4989813;28;20283;-47
2022/10/21 05:26:37;;;;;;;8.35;4.20;;;14.50;99.90;;;14.11;100.00;96793.69;4977978;28;20288;-44
2022/10/21 05:29:03;;;;;;;8.00;4.30;;;14.50;99.90;;;14.09;100.00;96784.13;4983888;28;20064;-43
2022/10/21 05:31:29;;;;;;;12.20;4.18;;;14.50;99.90;;;14.11;100.00;96776.94;4967627;28;20037;-45
2022/10/21 05:33:54;;;;;;;9.77;3.65;;;14.50;99.90;;;14.11;100.00;96787.53;4996008;28;20117;-46
2022/10/21 05:36:20;;;;;;;10.52;4.20;;;14.50;99.90;;;14.10;100.00;96776.09;4977454;28;20037;-50
2022/10/21 05:38:46;;;;;;;13.07;4.57;;;14.50;99.90;;;14.12;100.00;96783.91;4995109;28;20030;-46
2022/10/21 05:41:11;;;;;;;11.27;3.95;;;14.50;99.90;;;14.10;100.00;96770.78;4995572;28;20096;-46
2022/10/21 05:43:37;;;;;;;15.82;4.40;;;14.50;99.90;;;14.24;100.00;96772.56;4991294;28;20040;-47
2022/10/21 05:46:04;;;;;;;11.02;3.90;;;14.60;99.90;;;14.28;100.00;96782.06;4997195;28;20076;-47
2022/10/21 05:48:30;;;;;;;17.75;4.43;;;14.60;99.90;;;14.31;100.00;96779.19;4994301;28;20117;-48
2022/10/21 05:50:55;;;;;;;12.80;4.10;;;14.70;99.90;;;14.29;100.00;96770.47;4995330;28;20109;-48
2022/10/21 05:53:24;;;;;;;12.52;4.20;;;14.70;99.90;;;14.36;100.00;96770.13;4996174;28;20044;-48
2022/10/21 05:56:02;;;;;;;8.18;3.47;;;14.70;99.90;;;14.22;100.00;96747.94;4995810;28;20034;-48
2022/10/21 05:58:29;;;;;;;11.80;3.78;;;14.70;99.90;;;14.38;100.00;96766.41;4996337;28;20029;-47
2022/10/21 06:00:55;;;;;;;9.55;3.92;;;14.70;99.90;;;14.38;100.00;96763.75;4980616;28;20075;-48
2022/10/21 06:03:30;;;;;;;8.30;3.47;;;14.70;99.90;;;14.37;100.00;96761.19;4993497;28;20554;-48
2022/10/21 06:06:06;;;;;;;10.82;3.53;;;14.70;99.90;;;14.33;100.00;96745.47;4996563;28;20109;-47
2022/10/21 06:08:34;;;;;;;14.45;4.63;;;14.70;99.90;;;14.36;100.00;96748.91;4996743;28;20051;-48
2022/10/21 06:11:12;;;;;;;9.95;3.80;;;14.70;99.90;;;14.31;100.00;96763.28;4998400;28;20038;-48
2022/10/21 06:13:39;;;;;;;9.82;3.42;;;14.70;99.90;;;14.31;100.00;96767.75;4993660;28;20053;-44
2022/10/21 06:16:06;;;;;;;8.65;4.07;;;14.70;99.90;;;14.29;100.00;96769.66;4997906;28;20037;-48
2022/10/21 06:18:33;;;;;;;8.68;4.10;;;14.70;99.90;;;14.28;100.00;96776.75;5002348;28;20475;-47
2022/10/21 06:20:58;;;;;;;13.05;4.03;;;14.60;99.90;;;14.27;100.00;96780.34;4984451;28;20034;-47
2022/10/21 06:23:24;;;;;;;11.20;3.70;;;14.60;99.90;;;14.29;100.00;96793.50;4999099;28;20034;-47
2022/10/21 06:26:02;;;;;;;9.52;3.72;;;14.60;99.90;;;14.25;100.00;96784.03;5000588;28;20129;-47
2022/10/21 06:28:31;;;;;;;7.38;3.20;;;14.60;99.90;;;14.24;100.00;96793.78;5000119;28;20482;-48
2022/10/21 06:30:57;;;;;;;10.88;5.22;;;14.60;99.90;;;14.23;100.00;96793.88;5002060;28;20064;-46
2022/10/21 06:33:22;;;;;;;8.77;3.67;;;14.60;99.90;;;14.23;100.00;96792.09;4999474;28;20033;-47
2022/10/21 06:35:48;;;;;;;18.15;4.47;;;14.60;99.90;;;14.24;100.00;96790.28;4998798;28;20088;-48
2022/10/21 06:38:14;;;;;;;14.38;4.85;;;14.60;99.90;;;14.23;100.00;96793.88;4985623;28;20322;-43
2022/10/21 06:40:41;;;;;;;8.70;3.70;;;14.60;99.90;;;14.20;100.00;96804.69;5000550;28;20128;-48
2022/10/21 06:43:07;;;;;;;14.50;4.13;;;14.60;99.90;;;14.22;100.00;96814.25;4997423;28;20096;-48
2022/10/21 06:45:33;;;;;;;13.00;3.70;;;14.60;99.90;;;14.23;100.00;96807.13;4996290;28;20153;-45
2022/10/21 06:47:59;;;;;;;8.60;3.38;;;14.60;99.90;;;14.24;100.00;96808.84;5002762;28;20099;-45
2022/10/21 06:50:25;;;;;;;9.48;3.95;;;14.60;99.90;;;14.23;100.00;96812.44;4965051;28;20034;-44
2022/10/21 06:52:50;;;;;;;7.35;3.95;;;14.60;99.90;;;14.25;100.00;96818.53;4999397;28;20533;-46
2022/10/21 06:55:17;;;;;;;11.25;4.18;;;14.60;99.90;;;14.24;100.00;96827.41;5000919;28;20030;-48
2022/10/21 06:57:43;;;;;;;8.90;4.00;;;14.60;99.90;;;14.22;100.00;96846.06;4995971;28;20088;-47
2022/10/21 07:00:10;;;;;;;8.75;3.80;;;14.60;99.90;;;14.11;100.00;96816.69;4996598;28;20526;-46
2022/10/21 07:02:36;;;;;;;13.45;3.92;;;14.60;99.90;;;14.22;100.00;96851.38;4997283;28;20118;-48
2022/10/21 07:05:03;;;;;;;9.52;4.05;;;14.60;99.90;;;14.27;100.00;96853.75;4999793;28;20030;-47
2022/10/21 07:07:29;;;;;;;12.95;4.63;;;14.60;99.90;;;14.25;100.00;96843.22;5001538;28;20297;-45
2022/10/21 07:09:56;;;;;;;8.93;4.18;;;14.60;99.90;;;14.26;100.00;96844.94;4997478;28;20033;-43
2022/10/21 07:12:23;;;;;;;9.57;3.50;;;14.60;99.90;;;14.25;100.00;96837.94;4980688;28;20030;-46
2022/10/21 07:14:49;;;;;;;11.45;4.35;;;14.60;99.90;;;14.25;100.00;96848.53;4995020;28;20115;-45
2022/10/21 07:17:16;;;;;;;11.68;4.38;;;14.60;99.90;;;14.29;100.00;96843.91;5002456;28;20472;-47
2022/10/21 07:19:41;;;;;;;13.13;5.18;;;14.60;99.90;;;14.24;100.00;96819.47;4993067;28;20026;-47
2022/10/21 07:22:07;;;;;;;7.70;3.90;;;14.60;99.90;;;14.32;100.00;96828.66;4983733;28;20088;-47
2022/10/21 07:24:33;;;;;;;12.02;4.95;;;14.70;99.90;;;14.33;100.00;96810.94;4995412;28;20041;-44
2022/10/21 07:26:59;;;;;;;14.50;5.30;;;14.70;99.90;;;14.33;100.00;96785.25;4997156;28;20546;-47
2022/10/21 07:29:24;;;;;;;12.77;4.70;;;14.70;99.90;;;14.35;100.00;96769.25;4992981;28;20034;-47
2022/10/21 07:31:50;;;;;;;11.98;4.95;;;14.70;99.90;;;14.39;100.00;96805.28;4999027;28;20045;-47
2022/10/21 07:34:16;;;;;;;10.88;4.65;;;14.80;99.90;;;14.43;100.00;96809.44;4998318;28;20121;-47
2022/10/21 07:36:51;;;;;;;13.15;4.82;;;14.80;99.90;;;14.48;100.00;96811.78;4999075;28;20453;-48
2022/10/21 07:39:21;;;;;;;9.10;4.53;;;14.80;99.90;;;14.54;100.00;96816.72;5001032;28;20036;-48
2022/10/21 07:41:50;;;;;;;11.55;4.13;;;14.90;99.90;;;14.55;100.00;96844.09;4998754;28;20059;-47
2022/10/21 07:44:18;;;;;;;12.35;4.55;;;14.90;99.90;;;14.52;100.00;96838.03;4997528;28;20026;-47
2022/10/21 07:46:45;;;;;;;13.10;5.13;;;14.90;99.90;;;14.51;100.00;96832.81;5000838;28;20361;-48
2022/10/21 07:49:12;;;;;;;8.73;4.20;;;14.90;99.90;;;14.47;100.00;96826.84;4998490;28;20029;-47
2022/10/21 07:51:38;;;;;;;9.85;3.75;;;14.90;99.90;;;14.52;100.00;96834.53;4993861;28;20072;-48
2022/10/21 07:54:04;;;;;;;9.98;3.85;;;14.90;99.90;;;14.55;100.00;96844.09;4999207;28;20496;-47
2022/10/21 07:56:42;;;;;;;7.50;3.55;;;14.90;99.90;;;14.55;100.00;96834.31;4996782;28;20057;-47
2022/10/21 07:59:09;;;;;;;8.27;3.58;;;14.90;99.90;;;14.51;100.00;96835.47;4998013;28;20088;-49
2022/10/21 08:01:35;;;;;;;6.57;3.80;;;14.90;99.90;;;14.56;100.00;96849.31;4990376;28;20070;-49
2022/10/21 08:04:01;;;;;;;8.20;3.90;;;14.90;99.90;;;14.61;100.00;96841.13;4997318;28;20112;-49
2022/10/21 08:06:28;;;;;;;11.82;4.30;;;14.90;99.90;;;14.65;100.00;96837.31;4999201;28;20461;-48
2022/10/21 08:08:57;;;;;;;7.75;3.80;;;15.00;99.90;;;14.68;100.00;96834.47;4998345;28;20026;-48
2022/10/21 08:11:30;;;;;;;13.55;5.07;;;15.00;99.90;;;14.70;100.00;96829.91;4999880;28;20026;-48
2022/10/21 08:13:56;;;;;;;9.50;4.30;;;15.10;99.90;;;14.76;100.00;96826.03;4991856;28;20215;-48
2022/10/21 08:16:23;;;;;;;8.38;4.47;;;15.10;99.90;;;14.80;100.00;96825.72;4991490;28;20034;-49
2022/10/21 08:18:49;;;;;;;13.43;5.00;;;15.10;99.90;;;14.83;100.00;96840.63;4992291;28;20049;-49
2022/10/21 08:21:15;;;;;;;11.20;4.05;;;15.20;99.90;;;14.84;100.00;96844.97;4998553;28;20062;-49
2022/10/21 08:23:41;;;;;;;10.85;3.92;;;15.20;99.90;;;14.86;100.00;96845.75;4997115;28;20044;-49
2022/10/21 08:26:12;;;;;;;15.27;4.43;;;15.20;99.90;;;14.85;100.00;96844.88;4993666;28;20053;-48
2022/10/21 08:28:38;;;;;;;15.80;4.60;;;15.20;99.90;;;14.85;100.00;96851.97;4991271;28;20354;-48
2022/10/21 08:31:14;;;;;;;10.32;4.07;;;15.20;99.90;;;14.86;100.00;96837.78;4979954;28;20077;-49
2022/10/21 08:33:40;;;;;;;9.02;4.28;;;15.20;99.90;;;14.78;100.00;96809.03;4996467;28;20038;-49
2022/10/21 08:36:08;;;;;;;7.13;3.80;;;15.20;99.90;;;14.87;100.00;96812.91;4996086;28;20484;-45
2022/10/21 08:38:34;;;;;;;17.92;5.07;;;15.20;99.90;;;14.86;100.00;96808.56;4997438;28;20100;-42
2022/10/21 08:41:01;;;;;;;8.00;4.00;;;15.20;99.90;;;14.89;100.00;96803.06;4997009;28;20302;-45
2022/10/21 08:43:34;;;;;;;11.88;5.10;;;15.30;99.90;;;14.89;100.00;96806.56;4997619;28;20076;-43
2022/10/21 08:46:28;;;;;;;11.60;4.68;;;15.30;99.90;;;14.86;100.00;96798.81;4966731;28;20071;-46
2022/10/21 08:49:08;;;;;;;10.27;4.20;;;15.30;99.90;;;14.83;100.00;96824.69;4990404;28;20499;-49
2022/10/21 08:51:45;;;;;;;18.20;5.75;;;15.20;99.90;;;14.75;100.00;96835.78;4978454;28;20037;-43
2022/10/21 08:54:21;;;;;;;13.95;5.47;;;15.20;99.90;;;14.73;100.00;96816.44;4978195;28;20030;-46
2022/10/21 08:56:49;;;;;;;11.45;4.18;;;15.10;99.90;;;14.70;100.00;96830.75;4972677;28;21237;-46
2022/10/21 08:59:24;;;;;;;15.57;6.30;;;15.10;99.90;;;14.68;100.00;96882.25;4977304;28;20480;-47
2022/10/21 09:01:59;;;;;;;10.73;5.28;;;15.10;99.90;;;14.66;100.00;96892.94;4968668;28;20061;-43
2022/10/21 09:04:51;;;;;;;13.05;5.25;;;15.00;99.90;;;14.54;100.00;96799.97;4989669;28;20681;-47
2022/10/21 09:07:28;;;;;;;17.73;5.20;;;15.00;99.90;;;14.60;100.00;96848.19;4995632;28;20038;-48
2022/10/21 09:10:12;;;;;;;13.70;5.28;;;15.00;99.90;;;14.64;100.00;96878.06;4973525;28;20523;-45
2022/10/21 09:13:14;;;;;;;11.07;5.10;;;15.10;99.90;;;14.73;100.00;96873.97;4998068;28;20114;-48
2022/10/21 09:16:04;;;;;;;9.10;4.07;;;15.10;99.90;;;14.78;100.00;96872.75;4997321;28;20026;-48
2022/10/21 09:19:03;;;;;;;15.15;4.50;;;15.20;99.90;;;14.88;100.00;96873.88;4998238;28;20064;-48
2022/10/21 09:21:39;;;;;;;9.48;4.22;;;15.20;99.90;;;14.98;100.00;96878.63;4994974;28;20496;-48
2022/10/21 09:24:17;;;;;;;11.93;4.43;;;15.30;99.90;;;15.13;100.00;96890.06;4979174;28;20507;-47
2022/10/21 09:26:47;;;;;;;14.57;4.60;;;15.50;99.90;;;15.36;100.00;96889.47;4978814;28;20105;-48
2022/10/21 09:29:25;;;;;;;8.57;3.58;;;15.70;99.90;;;15.57;100.00;96894.34;4983290;28;20068;-48
2022/10/21 09:31:51;;;;;;;9.85;3.70;;;15.90;99.90;;;15.74;100.00;96904.75;4989964;28;20026;-48
2022/10/21 09:35:04;;;;;;;11.38;3.97;;;16.10;99.90;;;15.91;100.00;96911.59;4998037;28;20034;-48
2022/10/21 09:37:36;;;;;;;12.32;4.25;;;16.30;99.90;;;16.21;100.00;96911.38;4974485;28;20054;-46
2022/10/21 09:40:25;;;;;;;10.90;3.03;;;16.60;99.90;;;16.43;100.00;96912.56;4979179;28;20048;-48
2022/10/21 09:42:55;;;;;;;12.13;3.38;;;16.80;99.90;;;16.53;100.00;96920.78;4979920;28;20133;-47
2022/10/21 09:48:05;;;;;;;10.38;2.97;;;16.90;99.90;;;16.43;100.00;96912.56;5011942;28;20053;-46
2022/10/21 09:50:33;;;;;;;7.65;2.67;;;16.90;99.90;;;16.43;100.00;96915.22;4995758;28;20044;-46
2022/10/21 09:53:11;;;;;;;6.43;2.25;;;16.90;99.90;;;16.35;100.00;96925.56;5015419;28;20034;-44
2022/10/21 09:55:38;;;;;;;4.63;2.03;;;16.80;99.90;;;16.37;100.00;96924.50;4997371;28;20083;-42
2022/10/21 09:58:04;;;;;;;4.55;2.38;;;16.80;99.90;;;16.38;100.00;96926.22;4995689;28;20029;-43
2022/10/21 10:00:44;;;;;;;5.82;1.88;;;16.80;99.90;;;16.41;100.00;96931.28;5011177;28;20037;-43
2022/10/21 10:03:09;;;;;;;3.92;1.75;;;16.90;99.90;;;16.55;100.00;96935.69;4994215;28;20081;-42
2022/10/21 10:05:46;;;;;;;6.60;1.80;;;16.90;99.90;;;16.66;100.00;96937.59;5011579;28;20037;-43
2022/10/21 10:08:35;;;;;;;4.47;1.70;;;17.10;99.90;;;16.85;100.00;96939.91;4997015;28;20073;-45
2022/10/21 10:11:20;;;;;;;4.15;1.90;;;17.20;99.90;;;17.05;100.00;96938.50;5009545;28;20030;-42
2022/10/21 10:13:49;;;;;;;4.85;1.60;;;17.50;99.90;;;17.20;100.00;96938.38;5007397;28;20117;-43
2022/10/21 10:16:25;;;;;;;6.65;2.00;;;17.60;99.90;;;17.21;100.00;96940.94;5008275;28;20041;-48
2022/10/21 10:19:09;;;;;;;6.35;1.80;;;17.60;99.90;;;17.16;100.00;96941.25;4984655;28;20034;-47
2022/10/21 10:21:34;;;;;;;4.97;2.00;;;17.50;99.90;;;17.12;100.00;96930.91;5008005;28;20037;-44
2022/10/21 10:24:01;;;;;;;3.88;1.75;;;17.50;99.90;;;17.06;100.00;96926.03;5013812;28;20033;-47